AKG5 LCRA-LCRA

Flight info

Callsign AKG5
Flight time N/A
Altitude 2500
Route VFR
Aircraft B412/L-SDFGIRY/L

Departure

Time 2026-04-26 12:17
Airport RAF Akrotiri (LCRA)

Arrival

Time N/A
Airport RAF Akrotiri (LCRA)
Time Latitude Longitude Altitude Speed Heading
2026-04-26 12:15 34.59167 32.97043 94 ft 0 kts
2026-04-26 12:17 34.59290 32.97073 175 ft 51 kts 17°
2026-04-26 12:17 34.59765 32.97223 388 ft 89 kts 37°
2026-04-26 12:17 34.60310 32.97614 684 ft 92 kts 47°
2026-04-26 12:18 34.60857 32.98155 795 ft 112 kts 52°
2026-04-26 12:18 34.61353 32.98902 889 ft 119 kts 63°
2026-04-26 12:18 34.61788 32.99766 983 ft 117 kts 66°
2026-04-26 12:18 34.62135 33.00666 1132 ft 116 kts 73°
2026-04-26 12:19 34.62465 33.01623 948 ft 141 kts 70°
2026-04-26 12:19 34.62933 33.02604 861 ft 117 kts 51°
2026-04-26 12:19 34.63528 33.03194 901 ft 106 kts 41°
2026-04-26 12:19 34.64125 33.03694 945 ft 103 kts 42°
2026-04-26 12:20 34.64703 33.04213 973 ft 103 kts 44°
2026-04-26 12:20 34.65274 33.04755 977 ft 104 kts 44°
2026-04-26 12:20 34.65850 33.05297 979 ft 105 kts 44°
2026-04-26 12:20 34.66381 33.05897 980 ft 103 kts 55°
2026-04-26 12:21 34.66833 33.06571 981 ft 103 kts 56°
2026-04-26 12:21 34.67295 33.07237 983 ft 103 kts 54°
2026-04-26 12:21 34.67775 33.07904 983 ft 104 kts 53°
2026-04-26 12:21 34.68269 33.08555 979 ft 105 kts 51°
2026-04-26 12:22 34.68778 33.09175 981 ft 104 kts 49°
2026-04-26 12:22 34.69308 33.09783 990 ft 104 kts 47°
2026-04-26 12:22 34.69852 33.10352 1009 ft 96 kts 42°
2026-04-26 12:22 34.70277 33.10909 991 ft 85 kts 56°
2026-04-26 12:23 34.70599 33.11518 976 ft 87 kts 72°
2026-04-26 12:23 34.70835 33.12310 986 ft 102 kts 76°
2026-04-26 12:23 34.71030 33.13141 998 ft 102 kts 76°
2026-04-26 12:23 34.71242 33.13969 990 ft 103 kts 75°
2026-04-26 12:24 34.71461 33.14803 991 ft 103 kts 80°
2026-04-26 12:24 34.71556 33.15673 993 ft 103 kts 88°
2026-04-26 12:24 34.71391 33.16524 991 ft 105 kts 112°
2026-04-26 12:25 34.70158 33.17070 989 ft 130 kts 220°
2026-04-26 12:25 34.69532 33.16351 1001 ft 122 kts 222°
2026-04-26 12:25 34.68908 33.15646 992 ft 122 kts 223°
2026-04-26 12:25 34.68152 33.15492 991 ft 106 kts 144°
2026-04-26 12:26 34.67742 33.16221 991 ft 104 kts 117°
2026-04-26 12:26 34.67399 33.16998 994 ft 104 kts 116°
2026-04-26 12:26 34.67092 33.17791 995 ft 105 kts 113°
2026-04-26 12:26 34.66805 33.18604 998 ft 104 kts 111°
2026-04-26 12:27 34.66534 33.19437 998 ft 105 kts 110°
2026-04-26 12:27 34.66288 33.20263 999 ft 105 kts 109°
2026-04-26 12:27 34.66054 33.21109 1002 ft 105 kts 109°
2026-04-26 12:27 34.65736 33.21961 939 ft 126 kts 121°
2026-04-26 12:28 34.65293 33.22840 928 ft 130 kts 124°
2026-04-26 12:28 34.64887 33.23824 945 ft 128 kts 114°
2026-04-26 12:28 34.64527 33.24834 973 ft 123 kts 113°
2026-04-26 12:28 34.64639 33.25735 891 ft 128 kts 45°
2026-04-26 12:29 34.65281 33.25234 679 ft 143 kts 276°
2026-04-26 12:29 34.64788 33.24386 540 ft 131 kts 173°
2026-04-26 12:29 34.64467 33.25541 572 ft 92 kts 156°
2026-04-26 12:30 34.64034 33.24952 181 ft 126 kts 291°
2026-04-26 12:30 34.64531 33.24274 257 ft 98 kts 333°
2026-04-26 12:30 34.64882 33.24280 300 ft 51 kts 117°
2026-04-26 12:31 34.64779 33.23702 113 ft 32 kts 62°
2026-04-26 12:31 34.64848 33.23653 9 ft 1 kts 108°
2026-04-26 12:31 34.64841 33.23664 10 ft 1 kts 140°